createdAt,value
2023-03-29T00:01:35.903Z,3.83
2023-03-29T00:06:38.566Z,3.38
2023-03-29T00:11:41.073Z,4.03
2023-03-29T00:16:44.910Z,1.90
2023-03-29T00:21:47.236Z,4.85
2023-03-29T00:26:52.108Z,2.67
2023-03-29T00:32:03.652Z,2.65
2023-03-29T00:37:08.091Z,5.95
2023-03-29T00:42:15.674Z,3.13
2023-03-29T00:47:22.754Z,2.10
2023-03-29T00:52:30.112Z,4.65
2023-03-29T00:57:33.960Z,4.80
2023-03-29T01:02:39.628Z,3.40
2023-03-29T01:08:04.035Z,2.60
2023-03-29T01:13:16.928Z,2.05
2023-03-29T01:18:22.223Z,1.60
2023-03-29T01:23:46.997Z,3.70
2023-03-29T01:29:14.530Z,3.40
2023-03-29T01:34:27.224Z,3.47
2023-03-29T01:39:29.015Z,1.85
2023-03-29T01:44:40.406Z,2.60
2023-03-29T01:49:49.941Z,3.38
2023-03-29T01:55:14.984Z,2.20
2023-03-29T02:00:20.362Z,4.05
2023-03-29T02:05:24.386Z,3.25
2023-03-29T02:10:27.389Z,3.97
2023-03-29T02:15:29.408Z,3.38
2023-03-29T02:20:39.352Z,1.98
2023-03-29T02:25:42.972Z,3.42
2023-03-29T02:31:26.420Z,2.70
2023-03-29T02:36:54.665Z,3.22
2023-03-29T02:41:57.424Z,4.93
2023-03-29T02:47:05.964Z,3.25
2023-03-29T02:52:14.687Z,4.07
2023-03-29T02:57:16.524Z,5.88
2023-03-29T03:02:18.507Z,3.35
2023-03-29T03:07:20.600Z,2.45
2023-03-29T03:12:22.661Z,3.35
2023-03-29T03:17:24.801Z,2.47
2023-03-29T03:22:26.939Z,1.90
2023-03-29T03:27:29.104Z,6.85
2023-03-29T03:32:31.953Z,2.45
2023-03-29T03:37:33.919Z,3.80
2023-03-29T03:42:35.814Z,3.42
2023-03-29T03:47:38.174Z,2.97
2023-03-29T03:52:40.209Z,3.50
2023-03-29T03:57:42.273Z,2.92
2023-03-29T04:02:44.062Z,5.70
2023-03-29T04:07:46.410Z,4.35
2023-03-29T04:12:48.438Z,3.42
2023-03-29T04:17:50.543Z,8.07
2023-03-29T04:22:52.422Z,2.78
2023-03-29T04:27:54.518Z,10.15
2023-03-29T04:32:56.489Z,8.90
2023-03-29T04:37:58.520Z,4.18
2023-03-29T04:43:01.020Z,6.18
2023-03-29T04:48:02.925Z,5.07
2023-03-29T04:53:04.794Z,9.27
2023-03-29T04:58:06.779Z,5.55
2023-03-29T05:03:11.842Z,9.82
2023-03-29T05:08:13.651Z,5.30
2023-03-29T05:13:15.573Z,4.85
2023-03-29T05:18:17.378Z,3.80
2023-03-29T05:23:20.477Z,6.43
2023-03-29T05:28:22.474Z,7.47
2023-03-29T05:33:24.451Z,9.07
2023-03-29T05:38:26.452Z,10.10
2023-03-29T05:43:28.906Z,15.20
2023-03-29T05:48:31.551Z,5.90
2023-03-29T05:53:33.606Z,8.18
2023-03-29T05:58:36.440Z,10.98
2023-03-29T06:03:39.176Z,11.25
2023-03-29T06:08:41.522Z,6.80
2023-03-29T06:13:44.040Z,9.20
2023-03-29T06:18:46.472Z,9.55
2023-03-29T06:23:48.586Z,13.57
2023-03-29T06:28:52.295Z,15.68
2023-03-29T06:33:54.574Z,19.60
2023-03-29T06:38:56.733Z,12.95
2023-03-29T06:43:59.313Z,16.25
2023-03-29T06:49:01.576Z,8.80
2023-03-29T06:54:04.454Z,9.35
2023-03-29T06:59:07.011Z,11.85
2023-03-29T07:04:12.369Z,11.52
2023-03-29T07:09:18.335Z,9.95
2023-03-29T07:14:22.013Z,19.30
2023-03-29T07:19:30.462Z,14.73
2023-03-29T07:24:33.135Z,15.48
2023-03-29T07:29:36.430Z,4.90
2023-03-29T07:34:38.864Z,4.53
2023-03-29T07:39:40.740Z,5.03
2023-03-29T07:44:43.168Z,3.05
2023-03-29T07:49:47.950Z,6.55
2023-03-29T07:54:50.723Z,9.90
2023-03-29T07:59:54.228Z,6.03
2023-03-29T08:04:57.686Z,2.80
2023-03-29T08:10:00.723Z,4.03
2023-03-29T08:15:02.899Z,3.28
2023-03-29T08:20:06.785Z,6.15
2023-03-29T08:25:10.011Z,4.25
2023-03-29T08:30:12.727Z,7.35
2023-03-29T08:35:14.957Z,5.35
2023-03-29T08:40:21.800Z,1.48
2023-03-29T08:45:37.205Z,4.40
2023-03-29T08:50:50.547Z,3.10
2023-03-29T08:55:55.749Z,3.60
2023-03-29T09:01:05.135Z,3.22
2023-03-29T09:06:09.698Z,2.35
2023-03-29T09:11:24.045Z,2.38
2023-03-29T09:16:36.399Z,2.33
2023-03-29T09:22:03.184Z,5.05
2023-03-29T09:27:15.528Z,12.88
2023-03-29T09:32:31.496Z,7.03
2023-03-29T09:37:35.691Z,1.33
2023-03-29T09:42:38.679Z,2.25
2023-03-29T09:47:50.392Z,1.58
2023-03-29T09:52:52.398Z,2.58
2023-03-29T09:57:56.249Z,2.38
2023-03-29T10:02:59.029Z,1.20
2023-03-29T10:08:01.585Z,3.78
2023-03-29T10:13:13.031Z,4.85
2023-03-29T10:23:19.322Z,2.00
2023-03-29T10:28:22.821Z,6.13
2023-03-29T10:33:27.851Z,2.80
2023-03-29T10:38:30.225Z,3.90
2023-03-29T10:43:43.107Z,1.45
2023-03-29T10:48:50.683Z,5.38
2023-03-29T10:53:52.835Z,2.92
2023-03-29T10:59:22.993Z,6.32
2023-03-29T11:04:46.670Z,3.72
2023-03-29T11:09:57.174Z,2.90
2023-03-29T11:15:31.013Z,2.27
2023-03-29T11:21:06.703Z,2.17
2023-03-29T11:26:25.250Z,4.93
2023-03-29T11:31:37.981Z,4.35
2023-03-29T11:36:58.175Z,3.47
2023-03-29T11:42:29.480Z,3.58
2023-03-29T11:47:35.318Z,2.58
2023-03-29T11:52:44.097Z,3.42
2023-03-29T11:58:01.026Z,3.47
2023-03-29T12:03:18.004Z,5.88
2023-03-29T12:08:37.853Z,3.20
2023-03-29T12:13:52.725Z,4.35
2023-03-29T12:19:03.109Z,7.28
2023-03-29T12:24:05.163Z,1.70
2023-03-29T12:29:36.545Z,2.38
2023-03-29T12:35:00.214Z,5.20
2023-03-29T12:40:11.983Z,2.85
2023-03-29T12:45:43.169Z,4.78
2023-03-29T12:50:53.622Z,2.10
2023-03-29T12:55:55.963Z,2.65
2023-03-29T13:01:06.523Z,2.10
2023-03-29T13:06:11.123Z,3.92
2023-03-29T13:11:34.822Z,4.43
2023-03-29T13:16:37.264Z,5.88
2023-03-29T13:22:07.486Z,3.20
2023-03-29T13:27:25.185Z,1.75
2023-03-29T13:32:37.069Z,1.52
2023-03-29T13:37:48.839Z,7.90
2023-03-29T13:43:09.717Z,3.20
2023-03-29T13:48:27.435Z,4.15
2023-03-29T13:53:41.025Z,6.35
2023-03-29T13:59:05.693Z,2.50
2023-03-29T14:04:13.987Z,4.10
2023-03-29T14:09:18.458Z,2.75
2023-03-29T14:14:28.515Z,1.67
2023-03-29T14:19:36.992Z,5.22
2023-03-29T14:24:41.291Z,7.70
2023-03-29T14:29:47.398Z,1.83
2023-03-29T14:34:50.481Z,4.00
2023-03-29T14:39:53.631Z,2.38
2023-03-29T14:45:04.471Z,6.88
2023-03-29T14:50:10.187Z,6.80
2023-03-29T14:55:13.061Z,6.50
2023-03-29T15:00:22.237Z,2.20
2023-03-29T15:05:41.180Z,2.42
2023-03-29T15:10:44.987Z,1.67
2023-03-29T15:15:51.078Z,2.28
2023-03-29T15:20:53.177Z,4.80
2023-03-29T15:25:58.842Z,3.45
2023-03-29T15:31:10.017Z,3.53
2023-03-29T15:36:14.226Z,3.00
2023-03-29T15:41:16.114Z,3.20
2023-03-29T15:46:17.902Z,4.90
2023-03-29T15:51:19.955Z,5.68
2023-03-29T15:56:22.965Z,3.85
2023-03-29T16:01:34.697Z,6.15
2023-03-29T16:06:36.871Z,3.20
2023-03-29T16:11:40.829Z,3.72
2023-03-29T16:16:42.757Z,3.40
2023-03-29T16:21:45.339Z,4.40
2023-03-29T16:26:47.988Z,7.28
2023-03-29T16:31:50.525Z,9.73
2023-03-29T16:36:53.297Z,12.27
2023-03-29T16:41:55.330Z,31.48
2023-03-29T16:46:58.528Z,6.13
2023-03-29T16:52:00.466Z,12.02
2023-03-29T16:57:02.572Z,7.28
2023-03-29T17:02:04.300Z,3.05
2023-03-29T17:07:07.129Z,7.18
2023-03-29T17:12:09.355Z,6.80
2023-03-29T17:17:11.474Z,7.82
2023-03-29T17:22:13.303Z,37.47
2023-03-29T17:27:16.719Z,19.27
2023-03-29T17:32:18.452Z,7.38
2023-03-29T17:37:24.343Z,22.30
2023-03-29T17:42:26.425Z,12.68
2023-03-29T17:47:28.201Z,9.00
2023-03-29T17:52:29.955Z,9.52
2023-03-29T17:57:31.754Z,6.22
2023-03-29T18:02:33.531Z,3.08
2023-03-29T18:07:36.185Z,12.07
2023-03-29T18:12:38.359Z,22.45
2023-03-29T18:17:40.569Z,9.63
2023-03-29T18:22:44.119Z,8.02
2023-03-29T18:27:46.216Z,28.80
2023-03-29T18:32:48.148Z,12.02
2023-03-29T18:37:52.273Z,3.28
2023-03-29T18:42:54.165Z,18.95
2023-03-29T18:47:55.974Z,27.30
2023-03-29T18:52:57.928Z,13.27
2023-03-29T18:57:59.985Z,14.05
2023-03-29T19:03:02.571Z,8.05
2023-03-29T19:08:05.877Z,70.25
2023-03-29T19:13:07.981Z,35.92
2023-03-29T19:18:10.164Z,36.80
2023-03-29T19:23:11.971Z,24.45
2023-03-29T19:28:13.758Z,21.33
2023-03-29T19:33:15.993Z,42.97
2023-03-29T19:38:18.880Z,59.95
2023-03-29T19:43:20.925Z,21.05
2023-03-29T19:48:24.828Z,14.32
2023-03-29T19:53:27.123Z,14.55
2023-03-29T19:58:28.931Z,19.63
2023-03-29T20:03:34.197Z,11.65
2023-03-29T20:08:38.763Z,22.17
2023-03-29T20:13:45.160Z,16.33
2023-03-29T20:18:47.225Z,41.67
2023-03-29T20:23:49.055Z,34.85
2023-03-29T20:28:51.208Z,18.20
2023-03-29T20:33:53.715Z,16.83
2023-03-29T20:38:56.536Z,14.38
2023-03-29T20:43:58.816Z,11.65
2023-03-29T20:49:01.915Z,13.25
2023-03-29T20:54:05.529Z,13.60
2023-03-29T20:59:10.671Z,16.00
2023-03-29T21:04:13.371Z,15.68
2023-03-29T21:09:16.334Z,11.88
2023-03-29T21:14:22.332Z,10.35
2023-03-29T21:19:24.822Z,8.23
2023-03-29T21:24:26.910Z,9.98
2023-03-29T21:29:28.985Z,10.68
2023-03-29T21:34:31.249Z,13.23
2023-03-29T21:39:33.397Z,27.05
2023-03-29T21:44:35.245Z,23.23
2023-03-29T21:49:37.705Z,9.10
2023-03-29T21:54:39.700Z,8.40
2023-03-29T21:59:41.703Z,5.72
2023-03-29T22:04:43.491Z,6.03
2023-03-29T22:09:46.736Z,7.05
2023-03-29T22:14:49.253Z,8.07
2023-03-29T22:19:51.826Z,8.82
2023-03-29T22:24:55.413Z,6.60
2023-03-29T22:29:58.753Z,7.32
2023-03-29T22:35:00.554Z,9.18
2023-03-29T22:40:02.349Z,11.70
2023-03-29T22:45:05.279Z,15.32
2023-03-29T22:50:07.577Z,12.55
2023-03-29T22:55:09.602Z,7.28
2023-03-29T23:00:13.129Z,13.43
2023-03-29T23:05:14.937Z,9.00
2023-03-29T23:10:17.173Z,9.60
2023-03-29T23:15:23.173Z,10.50
2023-03-29T23:20:24.897Z,8.07
2023-03-29T23:25:27.424Z,12.25
2023-03-29T23:30:32.242Z,10.77
2023-03-29T23:35:34.309Z,8.65
2023-03-29T23:40:36.502Z,13.18
2023-03-29T23:45:39.656Z,12.43
2023-03-29T23:50:46.560Z,7.18
2023-03-29T23:55:48.801Z,9.77
